createdAt,value
2023-03-26T00:02:09.607Z,8.00
2023-03-26T00:04:38.431Z,7.90
2023-03-26T00:07:07.164Z,7.90
2023-03-26T00:09:35.925Z,7.90
2023-03-26T00:12:06.258Z,7.80
2023-03-26T00:14:35.410Z,7.80
2023-03-26T00:17:04.345Z,7.80
2023-03-26T00:19:33.967Z,7.70
2023-03-26T00:22:03.750Z,7.70
2023-03-26T00:24:32.581Z,7.60
2023-03-26T00:27:01.308Z,7.60
2023-03-26T00:29:33.338Z,7.60
2023-03-26T00:32:02.219Z,7.60
2023-03-26T00:34:31.030Z,7.70
2023-03-26T00:37:02.577Z,7.70
2023-03-26T00:39:35.710Z,7.60
2023-03-26T00:42:06.929Z,7.60
2023-03-26T00:44:37.284Z,7.60
2023-03-26T00:47:06.487Z,7.70
2023-03-26T00:49:35.357Z,7.70
2023-03-26T00:52:04.287Z,7.70
2023-03-26T00:54:33.064Z,7.70
2023-03-26T00:57:01.903Z,7.80
2023-03-26T00:59:30.659Z,7.80
2023-03-26T01:02:01.102Z,7.80
2023-03-26T01:04:32.321Z,7.80
2023-03-26T01:07:05.806Z,7.80
2023-03-26T01:09:37.772Z,7.80
2023-03-26T01:12:09.852Z,7.90
2023-03-26T01:14:39.868Z,7.80
2023-03-26T01:17:12.517Z,7.80
2023-03-26T01:19:49.605Z,7.70
2023-03-26T01:22:20.865Z,7.70
2023-03-26T01:24:56.257Z,7.60
2023-03-26T01:27:33.626Z,7.70
2023-03-26T01:30:11.755Z,7.60
2023-03-26T01:33:00.723Z,7.60
2023-03-26T01:35:39.560Z,7.70
2023-03-26T01:38:17.204Z,7.70
2023-03-26T01:40:53.186Z,7.70
2023-03-26T01:43:29.621Z,7.70
2023-03-26T01:46:01.337Z,7.70
2023-03-26T01:48:32.670Z,7.70
2023-03-26T01:51:01.499Z,7.70
2023-03-26T01:53:31.903Z,7.80
2023-03-26T01:56:13.343Z,7.80
2023-03-26T01:58:56.403Z,7.80
2023-03-26T02:01:30.324Z,7.80
2023-03-26T02:04:07.526Z,7.80
2023-03-26T02:06:43.351Z,7.80
2023-03-26T02:09:17.456Z,7.90
2023-03-26T02:11:49.264Z,7.80
2023-03-26T02:14:18.508Z,7.90
2023-03-26T02:16:48.028Z,7.90
2023-03-26T02:19:21.668Z,7.90
2023-03-26T02:21:52.267Z,7.90
2023-03-26T02:24:22.565Z,7.90
2023-03-26T02:26:58.153Z,7.90
2023-03-26T02:29:27.912Z,7.90
2023-03-26T02:31:56.869Z,7.90
2023-03-26T02:34:25.775Z,7.90
2023-03-26T02:36:57.206Z,7.90
2023-03-26T02:39:27.767Z,7.90
2023-03-26T02:42:01.853Z,7.90
2023-03-26T02:44:32.305Z,7.90
2023-03-26T02:47:01.282Z,7.90
2023-03-26T02:49:45.276Z,7.90
2023-03-26T02:52:20.577Z,7.90
2023-03-26T02:54:51.242Z,7.90
2023-03-26T02:57:23.940Z,7.80
2023-03-26T03:00:17.099Z,7.80
2023-03-26T03:02:52.976Z,7.80
2023-03-26T03:05:26.325Z,7.80
2023-03-26T03:08:13.451Z,7.80
2023-03-26T03:11:00.899Z,7.90
2023-03-26T03:13:50.278Z,7.90
2023-03-26T03:16:23.106Z,7.90
2023-03-26T03:18:58.121Z,7.90
2023-03-26T03:21:36.139Z,7.90
2023-03-26T03:24:05.952Z,7.80
2023-03-26T03:26:38.136Z,7.80
2023-03-26T03:29:22.676Z,7.80
2023-03-26T03:31:51.676Z,7.80
2023-03-26T03:34:38.710Z,7.70
2023-03-26T03:37:08.173Z,7.70
2023-03-26T03:39:45.130Z,7.70
2023-03-26T03:42:17.561Z,7.70
2023-03-26T03:44:47.756Z,7.70
2023-03-26T03:47:45.569Z,7.70
2023-03-26T03:50:16.156Z,7.70
2023-03-26T03:52:59.304Z,7.70
2023-03-26T03:55:28.815Z,7.70
2023-03-26T03:57:58.373Z,7.70
2023-03-26T04:00:30.754Z,7.70
2023-03-26T04:03:19.114Z,7.70
2023-03-26T04:06:02.761Z,7.80
2023-03-26T04:08:31.610Z,7.70
2023-03-26T04:11:00.473Z,7.70
2023-03-26T04:13:49.866Z,7.70
2023-03-26T04:16:39.252Z,7.70
2023-03-26T04:19:08.545Z,7.60
2023-03-26T04:21:37.880Z,7.60
2023-03-26T04:24:07.654Z,7.60
2023-03-26T04:27:16.160Z,7.60
2023-03-26T04:29:50.337Z,7.70
2023-03-26T04:32:29.897Z,7.70
2023-03-26T04:35:00.376Z,7.70
2023-03-26T04:37:39.580Z,7.70
2023-03-26T04:40:16.550Z,7.70
2023-03-26T04:42:54.739Z,7.70
2023-03-26T04:45:36.474Z,7.70
2023-03-26T04:48:08.290Z,7.70
2023-03-26T04:50:37.180Z,7.70
2023-03-26T04:53:06.600Z,7.80
2023-03-26T04:56:02.595Z,7.80
2023-03-26T04:58:51.887Z,7.80
2023-03-26T05:01:21.579Z,7.80
2023-03-26T05:03:51.787Z,7.70
2023-03-26T05:06:20.765Z,7.70
2023-03-26T05:08:49.767Z,7.70
2023-03-26T05:11:36.152Z,7.80
2023-03-26T05:14:05.176Z,7.80
2023-03-26T05:16:34.129Z,7.70
2023-03-26T05:19:10.286Z,7.70
2023-03-26T05:21:39.094Z,7.70
2023-03-26T05:24:08.469Z,7.70
2023-03-26T05:26:38.162Z,7.70
2023-03-26T05:29:07.092Z,7.70
2023-03-26T05:31:44.279Z,7.70
2023-03-26T05:34:14.515Z,7.70
2023-03-26T05:36:43.908Z,7.70
2023-03-26T05:39:46.530Z,7.70
2023-03-26T05:42:39.944Z,7.70
2023-03-26T05:45:32.066Z,7.70
2023-03-26T05:48:05.517Z,7.70
2023-03-26T05:50:35.949Z,7.70
2023-03-26T05:53:04.802Z,7.70
2023-03-26T05:56:02.072Z,7.60
2023-03-26T05:59:09.056Z,7.70
2023-03-26T06:01:56.286Z,7.60
2023-03-26T06:04:45.829Z,7.60
2023-03-26T06:07:51.679Z,7.60
2023-03-26T06:10:22.071Z,7.60
2023-03-26T06:12:50.922Z,7.60
2023-03-26T06:15:20.524Z,7.70
2023-03-26T06:17:54.794Z,7.80
2023-03-26T06:20:38.525Z,7.80
2023-03-26T06:23:14.598Z,7.80
2023-03-26T06:26:07.952Z,7.80
2023-03-26T06:28:55.768Z,7.70
2023-03-26T06:31:48.824Z,7.80
2023-03-26T06:34:24.082Z,7.80
2023-03-26T06:36:53.293Z,7.90
2023-03-26T06:39:24.918Z,7.80
2023-03-26T06:42:10.065Z,7.80
2023-03-26T06:45:05.717Z,7.80
2023-03-26T06:47:53.452Z,7.90
2023-03-26T06:50:44.951Z,7.90
2023-03-26T06:53:33.973Z,8.00
2023-03-26T06:56:24.337Z,8.00
2023-03-26T06:59:11.747Z,8.00
2023-03-26T07:01:59.105Z,8.10
2023-03-26T07:04:47.766Z,8.20
2023-03-26T07:07:35.415Z,8.20
2023-03-26T07:10:34.024Z,8.30
2023-03-26T07:13:30.708Z,8.40
2023-03-26T07:16:18.185Z,8.60
2023-03-26T07:19:09.801Z,8.50
2023-03-26T07:21:41.781Z,8.50
2023-03-26T07:24:31.036Z,8.40
2023-03-26T07:27:37.879Z,8.50
2023-03-26T07:30:13.565Z,8.50
2023-03-26T07:33:11.564Z,8.50
2023-03-26T07:35:54.309Z,8.50
2023-03-26T07:38:51.768Z,8.50
2023-03-26T07:41:47.288Z,8.50
2023-03-26T07:44:47.494Z,8.50
2023-03-26T07:47:26.065Z,8.40
2023-03-26T07:50:18.424Z,8.50
2023-03-26T07:53:06.374Z,8.50
2023-03-26T07:55:59.102Z,8.50
2023-03-26T07:59:03.195Z,8.50
2023-03-26T08:05:31.540Z,8.40
2023-03-26T08:08:38.217Z,8.40
2023-03-26T08:11:36.263Z,8.50
2023-03-26T08:14:19.271Z,8.60
2023-03-26T08:16:55.950Z,8.60
2023-03-26T08:19:40.815Z,8.70
2023-03-26T08:22:16.825Z,8.80
2023-03-26T08:24:57.298Z,8.90
2023-03-26T08:27:34.723Z,9.00
2023-03-26T08:30:12.126Z,9.10
2023-03-26T08:32:41.545Z,9.10
2023-03-26T08:35:13.520Z,9.00
2023-03-26T08:37:45.323Z,9.00
2023-03-26T08:40:23.938Z,9.00
2023-03-26T08:43:13.753Z,9.00
2023-03-26T08:46:05.333Z,9.00
2023-03-26T08:49:11.084Z,9.00
2023-03-26T08:52:21.535Z,9.10
2023-03-26T08:55:26.096Z,9.00
2023-03-26T08:58:39.335Z,9.00
2023-03-26T09:01:37.974Z,9.10
2023-03-26T09:04:41.402Z,9.20
2023-03-26T09:08:03.565Z,9.20
2023-03-26T09:11:11.958Z,9.30
2023-03-26T09:14:35.577Z,9.50
2023-03-26T09:17:29.577Z,9.50
2023-03-26T09:20:34.759Z,9.50
2023-03-26T09:23:45.366Z,9.60
2023-03-26T09:26:46.344Z,9.60
2023-03-26T09:29:56.827Z,9.60
2023-03-26T09:32:55.382Z,9.60
2023-03-26T09:35:46.457Z,9.90
2023-03-26T09:38:28.806Z,10.00
2023-03-26T09:41:05.254Z,10.00
2023-03-26T09:43:58.027Z,9.90
2023-03-26T09:46:36.112Z,9.70
2023-03-26T09:49:36.434Z,9.60
2023-03-26T09:52:32.965Z,9.70
2023-03-26T09:55:20.232Z,9.70
2023-03-26T09:58:05.826Z,9.70
2023-03-26T10:00:43.611Z,9.60
2023-03-26T10:03:29.340Z,9.60
2023-03-26T10:06:11.928Z,9.50
2023-03-26T10:09:06.906Z,9.50
2023-03-26T10:12:12.821Z,9.50
2023-03-26T10:14:47.549Z,9.50
2023-03-26T10:17:46.024Z,9.50
2023-03-26T10:20:39.205Z,9.60
2023-03-26T10:23:24.188Z,9.80
2023-03-26T10:26:06.105Z,10.00
2023-03-26T10:28:59.511Z,10.00
2023-03-26T10:31:40.437Z,10.00
2023-03-26T10:34:29.153Z,10.10
2023-03-26T10:37:07.804Z,10.00
2023-03-26T10:40:01.995Z,9.90
2023-03-26T10:42:54.285Z,9.80
2023-03-26T10:45:42.022Z,9.60
2023-03-26T10:48:36.767Z,9.30
2023-03-26T10:51:32.840Z,9.10
2023-03-26T10:54:09.387Z,8.80
2023-03-26T10:56:45.382Z,8.70
2023-03-26T10:59:15.934Z,8.70
2023-03-26T11:02:00.938Z,8.90
2023-03-26T11:04:38.054Z,9.10
2023-03-26T11:07:18.680Z,9.10
2023-03-26T11:09:58.213Z,8.90
2023-03-26T11:12:34.149Z,8.80
2023-03-26T11:15:15.090Z,8.90
2023-03-26T11:17:52.234Z,9.00
2023-03-26T11:20:28.290Z,9.00
2023-03-26T11:23:19.920Z,9.20
2023-03-26T11:26:03.513Z,9.40
2023-03-26T11:29:03.839Z,9.50
2023-03-26T11:31:58.166Z,9.60
2023-03-26T11:34:32.461Z,9.80
2023-03-26T11:37:04.761Z,10.20
2023-03-26T11:39:44.279Z,10.40
2023-03-26T11:42:17.460Z,10.20
2023-03-26T11:44:52.442Z,10.00
2023-03-26T11:47:27.276Z,9.80
2023-03-26T11:49:58.380Z,9.80
2023-03-26T11:52:28.190Z,9.80
2023-03-26T11:54:59.385Z,10.00
2023-03-26T11:57:31.172Z,10.30
2023-03-26T12:00:08.310Z,10.40
2023-03-26T12:02:42.189Z,10.60
2023-03-26T12:05:19.387Z,10.70
2023-03-26T12:07:53.050Z,10.60
2023-03-26T12:10:29.921Z,11.00
2023-03-26T12:13:02.591Z,11.00
2023-03-26T12:15:32.649Z,11.20
2023-03-26T12:18:21.877Z,11.30
2023-03-26T12:20:50.683Z,11.40
2023-03-26T12:23:44.315Z,11.60
2023-03-26T12:26:17.260Z,11.70
2023-03-26T12:28:48.303Z,11.70
2023-03-26T12:31:19.576Z,11.40
2023-03-26T12:34:07.703Z,11.30
2023-03-26T12:36:38.982Z,11.00
2023-03-26T12:40:09.766Z,10.80
2023-03-26T12:44:54.606Z,10.70
2023-03-26T12:45:23.233Z,10.40
2023-03-26T12:48:00.105Z,10.10
2023-03-26T12:50:52.234Z,9.80
2023-03-26T12:53:34.988Z,9.40
2023-03-26T12:56:13.373Z,8.90
2023-03-26T12:59:00.831Z,8.50
2023-03-26T13:01:41.134Z,8.30
2023-03-26T13:04:25.836Z,8.20
2023-03-26T13:07:00.678Z,8.30
2023-03-26T13:09:53.912Z,8.40
2023-03-26T13:12:34.392Z,8.70
2023-03-26T13:15:26.693Z,8.90
2023-03-26T13:18:08.948Z,9.10
2023-03-26T13:20:51.413Z,9.20
2023-03-26T13:23:33.431Z,9.30
2023-03-26T13:26:15.510Z,9.60
2023-03-26T13:28:53.732Z,10.00
2023-03-26T13:31:33.871Z,10.30
2023-03-26T13:34:10.645Z,10.30
2023-03-26T13:36:47.216Z,10.40
2023-03-26T13:39:26.273Z,10.50
2023-03-26T13:42:11.268Z,10.70
2023-03-26T13:44:53.747Z,10.70
2023-03-26T13:47:39.569Z,10.80
2023-03-26T13:50:21.107Z,10.70
2023-03-26T13:52:53.113Z,10.70
2023-03-26T13:55:25.705Z,10.80
2023-03-26T13:58:02.003Z,10.90
2023-03-26T14:00:39.729Z,10.80
2023-03-26T14:03:18.289Z,10.90
2023-03-26T14:05:51.095Z,11.10
2023-03-26T14:08:25.886Z,11.20
2023-03-26T14:10:57.819Z,11.00
2023-03-26T14:13:31.823Z,10.80
2023-03-26T14:16:08.820Z,10.70
2023-03-26T14:18:49.604Z,10.70
2023-03-26T14:21:49.057Z,10.70
2023-03-26T14:24:50.013Z,10.70
2023-03-26T14:27:37.956Z,10.60
2023-03-26T14:30:29.401Z,10.60
2023-03-26T14:33:12.535Z,10.40
2023-03-26T14:35:51.640Z,10.30
2023-03-26T14:39:05.343Z,10.20
2023-03-26T14:41:42.804Z,10.10
2023-03-26T14:44:48.018Z,10.10
2023-03-26T14:47:19.845Z,10.10
2023-03-26T14:50:15.740Z,10.10
2023-03-26T14:52:49.113Z,10.10
2023-03-26T14:55:35.325Z,10.10
2023-03-26T14:58:30.294Z,10.20
2023-03-26T15:01:27.615Z,10.20
2023-03-26T15:04:43.681Z,10.30
2023-03-26T15:07:51.493Z,10.40
2023-03-26T15:10:42.578Z,10.40
2023-03-26T15:13:28.136Z,10.40
2023-03-26T15:16:17.919Z,10.30
2023-03-26T15:19:17.715Z,10.30
2023-03-26T15:22:29.541Z,10.20
2023-03-26T15:25:46.496Z,10.30
2023-03-26T15:28:47.899Z,10.30
2023-03-26T15:31:43.296Z,10.40
2023-03-26T15:34:38.520Z,10.40
2023-03-26T15:37:44.853Z,10.20
2023-03-26T15:40:54.466Z,10.00
2023-03-26T15:43:29.878Z,9.90
2023-03-26T15:46:26.413Z,9.90
2023-03-26T15:49:07.273Z,10.00
2023-03-26T15:51:52.254Z,10.10
2023-03-26T15:54:30.052Z,10.20
2023-03-26T15:57:20.972Z,10.20
2023-03-26T16:00:12.493Z,10.10
2023-03-26T16:02:50.526Z,10.00
2023-03-26T16:05:37.155Z,9.90
2023-03-26T16:08:17.054Z,9.90
2023-03-26T16:10:52.248Z,9.90
2023-03-26T16:13:50.681Z,9.80
2023-03-26T16:16:41.303Z,9.70
2023-03-26T16:19:43.576Z,9.60
2023-03-26T16:22:16.298Z,9.60
2023-03-26T16:24:47.668Z,9.60
2023-03-26T16:27:33.529Z,9.50
2023-03-26T16:30:31.594Z,9.50
2023-03-26T16:33:15.738Z,9.40
2023-03-26T16:36:07.278Z,9.40
2023-03-26T16:38:50.266Z,9.40
2023-03-26T16:41:20.646Z,9.30
2023-03-26T16:44:04.254Z,9.30
2023-03-26T16:46:44.310Z,9.30
2023-03-26T16:49:38.598Z,9.20
2023-03-26T16:52:23.268Z,9.10
2023-03-26T16:54:58.192Z,9.00
2023-03-26T16:57:29.407Z,9.00
2023-03-26T17:00:16.307Z,8.90
2023-03-26T17:02:56.871Z,8.80
2023-03-26T17:05:36.950Z,8.70
2023-03-26T17:08:19.114Z,8.70
2023-03-26T17:11:19.629Z,8.60
2023-03-26T17:14:03.200Z,8.50
2023-03-26T17:16:36.555Z,8.40
2023-03-26T17:19:15.333Z,8.30
2023-03-26T17:21:55.580Z,8.20
2023-03-26T17:24:35.676Z,8.20
2023-03-26T17:27:38.702Z,8.00
2023-03-26T17:30:33.371Z,7.90
2023-03-26T17:33:13.597Z,7.70
2023-03-26T17:35:45.082Z,7.60
2023-03-26T17:38:51.109Z,7.50
2023-03-26T17:41:51.964Z,7.60
2023-03-26T17:44:48.712Z,7.60
2023-03-26T17:47:38.219Z,7.50
2023-03-26T17:50:14.130Z,7.40
2023-03-26T17:52:52.605Z,7.20
2023-03-26T17:55:25.695Z,7.20
2023-03-26T17:57:59.129Z,7.30
2023-03-26T18:00:32.379Z,7.30
2023-03-26T18:03:05.511Z,7.20
2023-03-26T18:05:35.904Z,7.20
2023-03-26T18:08:42.841Z,7.10
2023-03-26T18:11:44.454Z,6.90
2023-03-26T18:14:52.861Z,6.90
2023-03-26T18:17:21.698Z,6.90
2023-03-26T18:19:53.507Z,6.90
2023-03-26T18:22:25.208Z,7.00
2023-03-26T18:24:57.001Z,7.00
2023-03-26T18:27:26.359Z,7.00
2023-03-26T18:30:14.038Z,6.90
2023-03-26T18:32:52.575Z,6.90
2023-03-26T18:35:23.263Z,6.80
2023-03-26T18:37:55.899Z,6.80
2023-03-26T18:40:26.431Z,6.80
2023-03-26T18:42:57.553Z,6.80
2023-03-26T18:45:29.850Z,6.80
2023-03-26T18:48:01.074Z,6.90
2023-03-26T18:50:37.052Z,7.00
2023-03-26T18:53:07.892Z,7.10
2023-03-26T18:55:39.681Z,7.10
2023-03-26T18:58:22.246Z,7.00
2023-03-26T19:00:54.461Z,6.90
2023-03-26T19:03:25.063Z,6.90
2023-03-26T19:05:56.559Z,6.90
2023-03-26T19:08:26.736Z,6.80
2023-03-26T19:10:56.470Z,6.70
2023-03-26T19:13:25.472Z,6.80
2023-03-26T19:15:57.689Z,6.80
2023-03-26T19:18:28.963Z,6.70
2023-03-26T19:21:00.630Z,6.60
2023-03-26T19:23:32.962Z,6.50
2023-03-26T19:26:04.382Z,6.40
2023-03-26T19:28:34.859Z,6.40
2023-03-26T19:31:12.475Z,6.30
2023-03-26T19:33:43.665Z,6.20
2023-03-26T19:36:21.131Z,6.10
2023-03-26T19:38:53.244Z,6.10
2023-03-26T19:41:24.938Z,6.30
2023-03-26T19:43:57.970Z,6.20
2023-03-26T19:46:30.329Z,6.10
2023-03-26T19:48:59.323Z,6.10
2023-03-26T19:51:33.970Z,6.00
2023-03-26T19:54:13.926Z,5.90
2023-03-26T19:56:43.525Z,5.70
2023-03-26T19:59:13.045Z,5.60
2023-03-26T20:01:43.309Z,5.50
2023-03-26T20:04:13.688Z,5.40
2023-03-26T20:06:44.047Z,5.40
2023-03-26T20:09:14.098Z,5.30
2023-03-26T20:11:43.154Z,5.30
2023-03-26T20:14:15.194Z,5.30
2023-03-26T20:16:46.190Z,5.30
2023-03-26T20:19:15.627Z,5.20
2023-03-26T20:21:45.944Z,5.20
2023-03-26T20:24:16.369Z,5.40
2023-03-26T20:26:45.595Z,5.50
2023-03-26T20:29:15.021Z,5.50
2023-03-26T20:31:46.073Z,5.60
2023-03-26T20:34:19.008Z,5.50
2023-03-26T20:36:54.149Z,5.30
2023-03-26T20:39:23.572Z,5.20
2023-03-26T20:41:54.528Z,5.10
2023-03-26T20:44:23.412Z,5.00
2023-03-26T20:46:53.563Z,5.00
2023-03-26T20:49:22.957Z,4.90
2023-03-26T20:51:52.754Z,4.80
2023-03-26T20:54:24.194Z,4.70
2023-03-26T20:56:54.166Z,4.60
2023-03-26T20:59:26.870Z,4.50
2023-03-26T21:01:59.182Z,4.60
2023-03-26T21:04:28.619Z,4.40
2023-03-26T21:07:07.015Z,4.40
2023-03-26T21:09:37.183Z,4.30
2023-03-26T21:12:08.233Z,4.30
2023-03-26T21:14:41.438Z,4.30
2023-03-26T21:17:16.298Z,4.30
2023-03-26T21:19:46.198Z,4.20
2023-03-26T21:22:25.790Z,4.10
2023-03-26T21:25:02.701Z,4.10
2023-03-26T21:27:39.969Z,4.00
2023-03-26T21:30:14.366Z,4.10
2023-03-26T21:32:46.359Z,4.00
2023-03-26T21:35:16.490Z,4.00
2023-03-26T21:37:48.598Z,3.90
2023-03-26T21:40:19.311Z,3.90
2023-03-26T21:42:51.118Z,3.80
2023-03-26T21:45:21.345Z,3.80
2023-03-26T21:47:52.468Z,3.80
2023-03-26T21:50:23.633Z,3.80
2023-03-26T21:52:53.429Z,3.90
2023-03-26T21:55:24.370Z,4.00
2023-03-26T21:58:22.853Z,4.20
2023-03-26T22:01:08.578Z,4.20
2023-03-26T22:03:56.006Z,4.20
2023-03-26T22:06:31.382Z,4.20
2023-03-26T22:09:00.860Z,4.20
2023-03-26T22:11:29.665Z,4.40
2023-03-26T22:13:58.509Z,4.50
2023-03-26T22:16:27.261Z,4.60
2023-03-26T22:18:57.695Z,4.60
2023-03-26T22:21:26.527Z,4.60
2023-03-26T22:23:55.320Z,4.50
2023-03-26T22:26:25.183Z,4.50
2023-03-26T22:28:54.129Z,4.40
2023-03-26T22:31:24.785Z,4.40
2023-03-26T22:33:54.607Z,4.40
2023-03-26T22:36:25.324Z,4.30
2023-03-26T22:38:54.849Z,4.30
2023-03-26T22:41:23.817Z,4.30
2023-03-26T22:43:54.661Z,4.20
2023-03-26T22:46:24.249Z,4.10
2023-03-26T22:48:53.095Z,4.10
2023-03-26T22:51:22.007Z,4.00
2023-03-26T22:53:52.222Z,4.00
2023-03-26T22:56:21.017Z,4.00
2023-03-26T22:58:49.794Z,3.90
2023-03-26T23:01:21.376Z,3.90
2023-03-26T23:03:50.705Z,3.90
2023-03-26T23:06:19.559Z,3.80
2023-03-26T23:08:48.437Z,3.80
2023-03-26T23:11:20.422Z,3.80
2023-03-26T23:13:49.529Z,3.70
2023-03-26T23:16:19.836Z,3.70
2023-03-26T23:18:49.090Z,3.70
2023-03-26T23:21:19.517Z,3.70
2023-03-26T23:23:52.703Z,3.60
2023-03-26T23:26:22.879Z,3.60
2023-03-26T23:28:52.219Z,3.60
2023-03-26T23:31:21.083Z,3.60
2023-03-26T23:33:50.427Z,3.50
2023-03-26T23:36:21.149Z,3.50
2023-03-26T23:38:50.286Z,3.50
2023-03-26T23:41:21.772Z,3.50
2023-03-26T23:43:55.583Z,3.30
2023-03-26T23:46:31.012Z,3.30
2023-03-26T23:49:02.601Z,3.30
2023-03-26T23:51:31.952Z,3.30
2023-03-26T23:54:02.332Z,3.30
2023-03-26T23:56:31.856Z,3.10
2023-03-26T23:59:02.119Z,2.90
